createdAt,value
2018-04-26T00:01:18.259Z,55.90
2018-04-26T00:03:45.762Z,55.90
2018-04-26T00:06:13.254Z,55.90
2018-04-26T00:08:40.734Z,55.90
2018-04-26T00:11:13.176Z,56.00
2018-04-26T00:13:40.662Z,56.00
2018-04-26T00:16:08.382Z,55.80
2018-04-26T00:18:35.876Z,55.80
2018-04-26T00:21:03.412Z,55.80
2018-04-26T00:23:30.883Z,55.90
2018-04-26T00:25:59.223Z,55.90
2018-04-26T00:28:26.692Z,56.00
2018-04-26T00:30:54.192Z,56.00
2018-04-26T00:33:21.683Z,56.00
2018-04-26T00:35:50.071Z,56.10
2018-04-26T00:38:18.348Z,56.10
2018-04-26T00:40:46.067Z,56.00
2018-04-26T00:43:13.544Z,56.40
2018-04-26T00:45:41.021Z,56.80
2018-04-26T00:48:08.670Z,56.90
2018-04-26T00:50:36.139Z,57.00
2018-04-26T00:53:04.386Z,57.40
2018-04-26T00:55:31.862Z,57.30
2018-04-26T00:57:59.331Z,57.60
2018-04-26T01:00:27.611Z,57.90
2018-04-26T01:02:55.078Z,57.90
2018-04-26T01:05:22.547Z,57.90
2018-04-26T01:07:50.035Z,58.00
2018-04-26T01:10:17.502Z,58.30
2018-04-26T01:12:45.187Z,58.70
2018-04-26T01:15:12.667Z,58.90
2018-04-26T01:17:40.911Z,59.40
2018-04-26T01:20:08.545Z,59.40
2018-04-26T01:22:36.221Z,59.70
2018-04-26T01:25:03.716Z,59.80
2018-04-26T01:27:31.178Z,59.90
2018-04-26T01:29:58.643Z,59.90
2018-04-26T01:32:26.110Z,60.00
2018-04-26T01:34:53.578Z,60.20
2018-04-26T01:37:32.768Z,60.30
2018-04-26T01:40:00.295Z,60.40
2018-04-26T01:42:47.547Z,60.40
2018-04-26T01:45:15.009Z,60.60
2018-04-26T01:47:42.531Z,60.70
2018-04-26T01:50:10.720Z,60.80
2018-04-26T01:52:43.368Z,60.90
2018-04-26T01:55:10.850Z,60.80
2018-04-26T01:57:38.320Z,60.80
2018-04-26T02:00:05.779Z,60.40
2018-04-26T02:02:33.235Z,60.00
2018-04-26T02:05:00.786Z,60.00
2018-04-26T02:07:28.275Z,59.90
2018-04-26T02:09:55.771Z,59.90
2018-04-26T02:12:23.468Z,60.20
2018-04-26T02:14:50.945Z,60.30
2018-04-26T02:17:19.220Z,60.00
2018-04-26T02:19:47.262Z,60.00
2018-04-26T02:22:14.809Z,59.80
2018-04-26T02:24:42.937Z,59.70
2018-04-26T02:27:10.427Z,59.80
2018-04-26T02:29:37.935Z,59.80
2018-04-26T02:32:06.190Z,60.30
2018-04-26T02:34:33.685Z,60.30
2018-04-26T02:37:01.384Z,60.50
2018-04-26T02:39:28.867Z,60.80
2018-04-26T02:41:57.033Z,61.00
2018-04-26T02:44:24.511Z,61.10
2018-04-26T02:46:52.758Z,61.40
2018-04-26T02:49:21.130Z,61.40
2018-04-26T02:51:48.609Z,61.60
2018-04-26T02:54:16.345Z,61.60
2018-04-26T02:56:43.914Z,61.90
2018-04-26T02:59:11.387Z,62.10
2018-04-26T03:01:39.775Z,62.10
2018-04-26T03:04:07.248Z,62.20
2018-04-26T03:06:35.494Z,62.00
2018-04-26T03:09:03.026Z,61.90
2018-04-26T03:11:30.708Z,61.80
2018-04-26T03:13:58.179Z,61.80
2018-04-26T03:16:26.564Z,61.90
2018-04-26T03:18:54.040Z,62.00
2018-04-26T03:21:22.598Z,61.80
2018-04-26T03:23:50.071Z,61.70
2018-04-26T03:26:17.581Z,61.60
2018-04-26T03:28:45.675Z,61.60
2018-04-26T03:31:13.235Z,61.50
2018-04-26T03:33:40.688Z,61.30
2018-04-26T03:36:08.148Z,61.20
2018-04-26T03:38:35.617Z,61.20
2018-04-26T03:41:03.239Z,61.00
2018-04-26T03:43:30.712Z,60.90
2018-04-26T03:45:58.206Z,60.70
2018-04-26T03:48:25.668Z,60.60
2018-04-26T03:50:53.130Z,60.50
2018-04-26T03:53:20.603Z,60.50
2018-04-26T03:55:48.176Z,60.40
2018-04-26T03:58:15.668Z,60.40
2018-04-26T04:00:54.933Z,60.60
2018-04-26T04:03:34.315Z,60.60
2018-04-26T04:06:13.522Z,60.30
2018-04-26T04:08:41.203Z,60.20
2018-04-26T04:11:09.654Z,59.90
2018-04-26T04:13:37.882Z,59.80
2018-04-26T04:16:05.520Z,59.80
2018-04-26T04:18:32.999Z,59.50
2018-04-26T04:21:20.300Z,59.20
2018-04-26T04:23:47.763Z,59.20
2018-04-26T04:26:15.239Z,59.20
2018-04-26T04:28:43.160Z,59.30
2018-04-26T04:31:10.768Z,59.20
2018-04-26T04:33:38.288Z,59.20
2018-04-26T04:36:05.751Z,59.10
2018-04-26T04:38:33.237Z,59.20
2018-04-26T04:41:00.771Z,59.20
2018-04-26T04:43:28.270Z,59.30
2018-04-26T04:45:55.787Z,59.10
2018-04-26T04:48:23.264Z,58.90
2018-04-26T04:50:50.735Z,58.80
2018-04-26T04:53:19.520Z,58.80
2018-04-26T04:55:46.987Z,58.70
2018-04-26T04:58:14.488Z,58.60
2018-04-26T05:00:41.978Z,58.50
2018-04-26T05:03:09.464Z,58.20
2018-04-26T05:05:36.937Z,58.00
2018-04-26T05:08:04.660Z,57.90
2018-04-26T05:10:32.154Z,57.70
2018-04-26T05:13:00.459Z,57.40
2018-04-26T05:15:27.924Z,57.40
2018-04-26T05:17:55.419Z,57.30
2018-04-26T05:20:22.890Z,57.10
2018-04-26T05:22:50.642Z,57.30
2018-04-26T05:25:18.895Z,57.30
2018-04-26T05:27:46.399Z,57.30
2018-04-26T05:30:13.909Z,57.50
2018-04-26T05:32:41.595Z,57.70
2018-04-26T05:35:09.094Z,57.50
2018-04-26T05:37:37.331Z,57.40
2018-04-26T05:40:04.820Z,57.30
2018-04-26T05:42:32.685Z,57.30
2018-04-26T05:45:00.932Z,57.10
2018-04-26T05:47:28.468Z,57.00
2018-04-26T05:49:55.953Z,57.10
2018-04-26T05:52:23.444Z,56.90
2018-04-26T05:54:51.699Z,57.10
2018-04-26T05:57:19.189Z,57.60
2018-04-26T05:59:46.691Z,57.10
2018-04-26T06:02:14.322Z,57.30
2018-04-26T06:04:41.846Z,56.60
2018-04-26T06:07:09.309Z,56.10
2018-04-26T06:09:37.003Z,56.20
2018-04-26T06:12:04.643Z,56.20
2018-04-26T06:14:32.929Z,56.00
2018-04-26T06:17:00.647Z,55.80
2018-04-26T06:19:28.152Z,55.50
2018-04-26T06:22:00.751Z,55.30
2018-04-26T06:24:28.274Z,55.30
2018-04-26T06:26:57.340Z,54.40
2018-04-26T06:29:24.819Z,54.40
2018-04-26T06:31:58.263Z,53.90
2018-04-26T06:34:25.731Z,53.80
2018-04-26T06:36:53.250Z,52.60
2018-04-26T06:39:20.723Z,52.40
2018-04-26T06:41:53.935Z,52.00
2018-04-26T06:44:21.413Z,52.00
2018-04-26T06:46:48.915Z,51.90
2018-04-26T06:49:16.442Z,52.00
2018-04-26T06:51:44.096Z,51.80
2018-04-26T06:54:11.709Z,51.80
2018-04-26T06:56:39.196Z,51.50
2018-04-26T06:59:06.683Z,51.40
2018-04-26T07:01:35.165Z,51.30
2018-04-26T07:04:02.663Z,51.30
2018-04-26T07:09:02.001Z,50.60
2018-04-26T07:11:29.598Z,50.30
2018-04-26T07:13:57.137Z,50.10
2018-04-26T07:16:24.603Z,49.90
2018-04-26T07:18:52.120Z,50.00
2018-04-26T07:21:20.003Z,49.60
2018-04-26T07:23:47.487Z,49.40
2018-04-26T07:26:14.985Z,49.60
2018-04-26T07:28:42.447Z,49.70
2018-04-26T07:31:10.696Z,49.70
2018-04-26T07:33:38.155Z,49.60
2018-04-26T07:36:06.505Z,49.60
2018-04-26T07:38:34.821Z,49.70
2018-04-26T07:41:02.320Z,49.60
2018-04-26T07:43:29.817Z,49.50
2018-04-26T07:45:57.292Z,49.60
2018-04-26T07:48:24.780Z,49.40
2018-04-26T07:50:52.285Z,49.40
2018-04-26T07:53:19.787Z,49.20
2018-04-26T07:55:47.259Z,49.00
2018-04-26T07:58:14.735Z,48.60
2018-04-26T08:00:42.203Z,48.00
2018-04-26T08:03:09.691Z,47.70
2018-04-26T08:05:38.727Z,47.20
2018-04-26T08:08:06.195Z,47.10
2018-04-26T08:10:33.710Z,47.00
2018-04-26T08:13:01.208Z,46.70
2018-04-26T08:15:28.870Z,46.30
2018-04-26T08:17:56.359Z,46.40
2018-04-26T08:20:23.863Z,46.30
2018-04-26T08:22:53.606Z,46.20
2018-04-26T08:25:21.948Z,46.20
2018-04-26T08:27:50.208Z,46.50
2018-04-26T08:30:17.707Z,46.40
2018-04-26T08:32:45.275Z,46.10
2018-04-26T08:35:12.807Z,46.10
2018-04-26T08:37:40.287Z,46.00
2018-04-26T08:40:09.768Z,45.90
2018-04-26T08:42:37.261Z,45.90
2018-04-26T08:45:04.759Z,46.00
2018-04-26T08:47:32.241Z,46.80
2018-04-26T08:49:59.733Z,46.20
2018-04-26T08:52:27.585Z,46.20
2018-04-26T08:54:55.035Z,46.20
2018-04-26T08:57:22.545Z,46.50
2018-04-26T08:59:50.035Z,46.50
2018-04-26T09:02:17.736Z,46.20
2018-04-26T09:04:45.363Z,45.90
2018-04-26T09:07:12.864Z,45.30
2018-04-26T09:09:40.329Z,44.90
2018-04-26T09:12:08.840Z,44.30
2018-04-26T09:14:36.340Z,44.30
2018-04-26T09:17:03.826Z,44.30
2018-04-26T09:19:32.551Z,44.60
2018-04-26T09:22:05.111Z,44.50
2018-04-26T09:24:32.777Z,44.30
2018-04-26T09:27:00.257Z,43.50
2018-04-26T09:29:27.771Z,43.10
2018-04-26T09:31:55.259Z,42.30
2018-04-26T09:34:22.816Z,42.20
2018-04-26T09:36:50.963Z,42.10
2018-04-26T09:39:19.292Z,43.10
2018-04-26T09:41:46.756Z,43.10
2018-04-26T09:44:14.231Z,44.90
2018-04-26T09:46:41.732Z,46.30
2018-04-26T09:49:09.270Z,46.50
2018-04-26T09:51:37.507Z,46.70
2018-04-26T09:54:04.992Z,46.60
2018-04-26T09:56:32.474Z,46.20
2018-04-26T09:59:00.098Z,46.10
2018-04-26T10:01:27.728Z,45.90
2018-04-26T10:03:55.234Z,45.90
2018-04-26T10:06:29.942Z,45.20
2018-04-26T10:08:57.426Z,45.10
2018-04-26T10:11:25.173Z,44.80
2018-04-26T10:13:52.644Z,44.50
2018-04-26T10:16:20.350Z,44.00
2018-04-26T10:18:47.971Z,43.20
2018-04-26T10:21:16.528Z,42.40
2018-04-26T10:23:44.020Z,42.40
2018-04-26T10:28:43.851Z,42.30
2018-04-26T10:31:11.562Z,42.60
2018-04-26T10:33:39.055Z,43.50
2018-04-26T10:36:06.972Z,45.00
2018-04-26T10:38:35.560Z,47.10
2018-04-26T10:41:03.960Z,47.40
2018-04-26T10:43:31.480Z,47.80
2018-04-26T10:45:59.606Z,47.90
2018-04-26T10:48:27.126Z,47.20
2018-04-26T10:50:54.688Z,46.90
2018-04-26T10:53:22.150Z,46.10
2018-04-26T10:55:49.643Z,45.70
2018-04-26T10:58:17.337Z,45.30
2018-04-26T11:00:44.890Z,44.60
2018-04-26T11:03:12.419Z,43.50
2018-04-26T11:05:39.886Z,42.50
2018-04-26T11:08:07.427Z,42.90
2018-04-26T11:10:35.025Z,42.20
2018-04-26T11:13:02.547Z,41.80
2018-04-26T11:15:30.940Z,40.60
2018-04-26T11:17:58.371Z,40.50
2018-04-26T11:20:25.884Z,40.30
2018-04-26T11:22:53.375Z,40.10
2018-04-26T11:25:20.855Z,40.00
2018-04-26T11:27:49.123Z,41.10
2018-04-26T11:30:16.675Z,41.00
2018-04-26T11:32:44.202Z,41.90
2018-04-26T11:35:11.683Z,42.80
2018-04-26T11:37:39.156Z,43.60
2018-04-26T11:40:07.275Z,43.80
2018-04-26T11:42:34.748Z,44.30
2018-04-26T11:45:02.227Z,44.40
2018-04-26T11:47:29.711Z,44.10
2018-04-26T11:49:57.230Z,43.60
2018-04-26T11:52:25.414Z,43.10
2018-04-26T11:54:53.431Z,43.10
2018-04-26T11:57:21.913Z,44.00
2018-04-26T11:59:49.469Z,43.90
2018-04-26T12:02:17.094Z,44.40
2018-04-26T12:04:44.600Z,45.70
2018-04-26T12:07:16.072Z,46.40
2018-04-26T12:09:43.563Z,47.30
2018-04-26T12:12:16.134Z,48.90
2018-04-26T12:14:44.098Z,49.10
2018-04-26T12:17:11.603Z,49.20
2018-04-26T12:19:39.078Z,48.90
2018-04-26T12:22:06.591Z,48.00
2018-04-26T12:24:34.063Z,47.90
2018-04-26T12:27:01.904Z,46.90
2018-04-26T12:29:29.454Z,46.30
2018-04-26T12:31:56.980Z,45.40
2018-04-26T12:34:24.462Z,44.50
2018-04-26T12:36:51.982Z,43.60
2018-04-26T12:39:20.235Z,42.20
2018-04-26T12:41:47.966Z,42.20
2018-04-26T12:44:15.480Z,41.60
2018-04-26T12:46:43.738Z,42.00
2018-04-26T12:49:12.002Z,41.40
2018-04-26T12:51:39.462Z,41.30
2018-04-26T12:54:07.125Z,41.50
2018-04-26T12:56:34.624Z,42.00
2018-04-26T12:59:02.107Z,42.90
2018-04-26T13:01:35.026Z,43.20
2018-04-26T13:04:02.519Z,43.90
2018-04-26T13:06:30.075Z,45.00
2018-04-26T13:08:57.578Z,45.80
2018-04-26T13:11:25.335Z,46.60
2018-04-26T13:13:52.843Z,47.70
2018-04-26T13:16:21.080Z,48.00
2018-04-26T13:18:48.595Z,47.90
2018-04-26T13:21:16.376Z,48.40
2018-04-26T13:23:43.783Z,46.50
2018-04-26T13:26:11.255Z,46.20
2018-04-26T13:28:38.831Z,47.80
2018-04-26T13:31:07.069Z,48.10
2018-04-26T13:33:34.561Z,49.60
2018-04-26T13:36:02.037Z,51.30
2018-04-26T13:38:29.546Z,52.40
2018-04-26T13:40:57.010Z,53.70
2018-04-26T13:43:25.258Z,54.20
2018-04-26T13:45:52.785Z,54.10
2018-04-26T13:48:20.283Z,55.70
2018-04-26T13:50:47.759Z,57.10
2018-04-26T13:53:16.018Z,59.80
2018-04-26T13:55:43.519Z,59.80
2018-04-26T13:58:10.986Z,61.20
2018-04-26T14:00:38.491Z,62.20
2018-04-26T14:03:15.974Z,62.20
2018-04-26T14:05:43.439Z,62.60
2018-04-26T14:08:11.007Z,63.40
2018-04-26T14:10:39.272Z,62.80
2018-04-26T14:13:06.738Z,62.70
2018-04-26T14:15:34.989Z,63.20
2018-04-26T14:18:02.476Z,63.20
2018-04-26T14:20:29.961Z,62.80
2018-04-26T14:22:57.489Z,62.30
2018-04-26T14:25:24.935Z,61.90
2018-04-26T14:27:52.483Z,61.90
2018-04-26T14:30:19.967Z,61.50
2018-04-26T14:32:48.440Z,61.40
2018-04-26T14:35:15.999Z,61.30
2018-04-26T14:37:43.504Z,61.50
2018-04-26T14:40:11.006Z,61.30
2018-04-26T14:42:38.622Z,61.00
2018-04-26T14:45:06.111Z,60.70
2018-04-26T14:47:33.583Z,60.40
2018-04-26T14:50:01.080Z,60.00
2018-04-26T14:52:28.762Z,59.80
2018-04-26T14:54:56.240Z,59.80
2018-04-26T14:57:23.755Z,60.10
2018-04-26T14:59:51.229Z,60.40
2018-04-26T15:02:18.696Z,60.20
2018-04-26T15:04:46.877Z,60.40
2018-04-26T15:07:14.367Z,60.60
2018-04-26T15:09:41.895Z,60.70
2018-04-26T15:12:09.615Z,60.90
2018-04-26T15:14:37.114Z,60.80
2018-04-26T15:17:04.723Z,60.80
2018-04-26T15:19:32.980Z,60.80
2018-04-26T15:22:00.458Z,60.70
2018-04-26T15:24:27.959Z,60.40
2018-04-26T15:26:55.500Z,60.00
2018-04-26T15:29:23.044Z,59.50
2018-04-26T15:31:50.567Z,59.30
2018-04-26T15:34:18.805Z,59.00
2018-04-26T15:36:47.021Z,58.70
2018-04-26T15:39:14.515Z,58.80
2018-04-26T15:41:42.342Z,56.40
2018-04-26T15:44:09.875Z,53.40
2018-04-26T15:46:37.403Z,50.90
2018-04-26T15:49:04.877Z,49.20
2018-04-26T15:51:32.396Z,48.80
2018-04-26T15:54:11.736Z,49.00
2018-04-26T15:57:00.924Z,49.30
2018-04-26T15:59:40.364Z,50.50
2018-04-26T16:02:26.294Z,50.90
2018-04-26T16:05:11.388Z,50.80
2018-04-26T16:07:57.388Z,51.50
2018-04-26T16:10:44.000Z,51.80
2018-04-26T16:13:34.287Z,51.80
2018-04-26T16:16:20.049Z,52.20
2018-04-26T16:18:57.393Z,52.50
2018-04-26T16:21:42.816Z,52.90
2018-04-26T16:24:27.923Z,53.30
2018-04-26T16:27:13.047Z,53.40
2018-04-26T16:29:52.222Z,54.00
2018-04-26T16:32:37.375Z,54.30
2018-04-26T16:35:29.636Z,55.60
2018-04-26T16:38:14.775Z,55.60
2018-04-26T16:40:42.254Z,55.60
2018-04-26T16:43:10.692Z,56.40
2018-04-26T16:45:38.959Z,56.00
2018-04-26T16:48:07.247Z,55.60
2018-04-26T16:50:34.923Z,55.40
2018-04-26T16:53:02.455Z,55.40
2018-04-26T16:55:29.970Z,56.70
2018-04-26T16:57:57.449Z,56.40
2018-04-26T17:00:24.913Z,56.20
2018-04-26T17:02:52.614Z,56.20
2018-04-26T17:05:20.104Z,56.00
2018-04-26T17:07:50.139Z,56.40
2018-04-26T17:10:17.608Z,56.70
2018-04-26T17:12:45.320Z,56.90
2018-04-26T17:15:13.605Z,56.80
2018-04-26T17:17:41.748Z,55.90
2018-04-26T17:20:09.269Z,55.20
2018-04-26T17:22:37.456Z,55.00
2018-04-26T17:25:04.956Z,54.80
2018-04-26T17:27:32.475Z,54.70
2018-04-26T17:30:02.748Z,54.10
2018-04-26T17:32:31.007Z,54.20
2018-04-26T17:34:58.522Z,54.10
2018-04-26T17:37:27.716Z,54.30
2018-04-26T17:39:55.200Z,54.70
2018-04-26T17:42:33.044Z,54.80
2018-04-26T17:45:01.016Z,54.70
2018-04-26T17:47:28.653Z,54.60
2018-04-26T17:49:56.147Z,54.60
2018-04-26T17:52:23.887Z,54.60
2018-04-26T17:54:53.756Z,54.70
2018-04-26T17:57:21.544Z,54.70
2018-04-26T17:59:50.850Z,54.70
2018-04-26T18:02:21.606Z,54.80
2018-04-26T18:04:49.620Z,54.90
2018-04-26T18:07:17.590Z,54.60
2018-04-26T18:09:46.088Z,54.20
2018-04-26T18:12:20.835Z,53.80
2018-04-26T18:14:50.215Z,53.70
2018-04-26T18:17:20.658Z,53.50
2018-04-26T18:19:49.014Z,52.40
2018-04-26T18:22:28.078Z,52.20
2018-04-26T18:24:57.299Z,52.20
2018-04-26T18:30:00.507Z,53.60
2018-04-26T18:32:28.687Z,53.70
2018-04-26T18:34:56.472Z,53.70
2018-04-26T18:37:26.773Z,54.10
2018-04-26T18:42:27.481Z,53.30
2018-04-26T18:45:02.399Z,53.30
2018-04-26T18:47:30.138Z,53.80
2018-04-26T18:49:58.935Z,52.80
2018-04-26T18:55:06.208Z,52.60
2018-04-26T18:57:35.651Z,52.70
2018-04-26T19:00:11.412Z,52.70
2018-04-26T19:06:00.416Z,52.90
2018-04-26T19:08:30.007Z,52.90
2018-04-26T19:10:59.056Z,53.00
2018-04-26T19:13:27.151Z,53.00
2018-04-26T19:15:57.990Z,53.00
2018-04-26T19:18:30.087Z,53.10
2018-04-26T19:20:57.846Z,53.40
2018-04-26T19:23:25.412Z,53.60
2018-04-26T19:25:54.726Z,53.70
2018-04-26T19:30:59.342Z,54.20
2018-04-26T19:33:29.992Z,54.40
2018-04-26T19:35:57.547Z,54.50
2018-04-26T19:38:25.033Z,54.20
2018-04-26T19:40:53.988Z,54.20
2018-04-26T19:43:23.524Z,54.00
2018-04-26T19:45:51.052Z,54.10
2018-04-26T19:48:18.620Z,53.80
2018-04-26T19:50:49.467Z,53.30
2018-04-26T19:53:17.274Z,53.10
2018-04-26T19:55:45.223Z,53.20
2018-04-26T19:58:14.977Z,53.30
2018-04-26T20:00:45.422Z,53.40
2018-04-26T20:05:47.052Z,53.50
2018-04-26T20:08:14.583Z,53.30
2018-04-26T20:13:16.432Z,53.20
2018-04-26T20:15:43.944Z,53.30
2018-04-26T20:18:14.780Z,53.30
2018-04-26T20:20:44.813Z,53.30
2018-04-26T20:23:23.907Z,53.30
2018-04-26T20:25:52.556Z,53.30
2018-04-26T20:28:20.325Z,53.20
2018-04-26T20:35:56.241Z,53.20
2018-04-26T20:38:24.038Z,53.40
2018-04-26T20:40:53.911Z,53.40
2018-04-26T20:43:23.183Z,53.50
2018-04-26T20:45:51.366Z,53.40
2018-04-26T20:48:35.087Z,53.30
2018-04-26T20:51:04.803Z,53.30
2018-04-26T20:56:06.386Z,53.10
2018-04-26T20:58:34.561Z,53.00
2018-04-26T21:01:03.274Z,53.00
2018-04-26T21:06:08.028Z,53.20
2018-04-26T21:08:38.121Z,53.30
2018-04-26T21:11:05.754Z,53.30
2018-04-26T21:13:35.291Z,53.30
2018-04-26T21:16:03.469Z,53.30
2018-04-26T21:18:31.683Z,53.10
2018-04-26T21:21:00.003Z,53.00
2018-04-26T21:23:28.828Z,52.90
2018-04-26T21:25:57.202Z,52.80
2018-04-26T21:28:24.738Z,52.70
2018-04-26T21:30:54.717Z,52.70
2018-04-26T21:33:23.192Z,52.60
2018-04-26T21:35:51.591Z,52.80
2018-04-26T21:38:19.960Z,52.70
2018-04-26T21:40:48.306Z,52.90
2018-04-26T21:43:16.747Z,53.00
2018-04-26T21:45:46.619Z,53.30
2018-04-26T21:48:14.634Z,53.30
2018-04-26T21:50:48.500Z,53.40
2018-04-26T21:53:22.011Z,53.30
2018-04-26T21:55:57.265Z,53.50
2018-04-26T21:58:30.425Z,53.50
2018-04-26T22:01:03.615Z,53.50
2018-04-26T22:03:35.729Z,53.60
2018-04-26T22:06:05.118Z,53.60
2018-04-26T22:08:32.904Z,53.70
2018-04-26T22:11:00.404Z,53.50
2018-04-26T22:13:27.923Z,53.20
2018-04-26T22:15:56.194Z,53.20
2018-04-26T22:18:23.695Z,53.20
2018-04-26T22:20:51.210Z,53.30
2018-04-26T22:23:19.458Z,54.10
2018-04-26T22:25:46.977Z,54.00
2018-04-26T22:28:14.471Z,54.50
2018-04-26T22:30:41.943Z,54.90
2018-04-26T22:33:10.231Z,55.20
2018-04-26T22:35:37.704Z,55.40
2018-04-26T22:38:06.113Z,55.50
2018-04-26T22:40:35.033Z,55.60
2018-04-26T22:43:02.547Z,55.70
2018-04-26T22:45:30.035Z,55.90
2018-04-26T22:47:57.759Z,56.00
2018-04-26T22:50:25.246Z,55.90
2018-04-26T22:52:55.044Z,55.80
2018-04-26T22:55:22.524Z,55.70
2018-04-26T22:57:49.996Z,55.60
2018-04-26T23:00:17.468Z,55.50
2018-04-26T23:02:44.980Z,55.10
2018-04-26T23:05:12.467Z,54.90
2018-04-26T23:07:39.938Z,54.80
2018-04-26T23:10:07.429Z,54.80
2018-04-26T23:12:34.891Z,55.40
2018-04-26T23:15:02.372Z,54.80
2018-04-26T23:17:29.867Z,54.80
2018-04-26T23:19:57.365Z,54.90
2018-04-26T23:22:24.867Z,54.80
2018-04-26T23:24:52.330Z,54.60
2018-04-26T23:27:19.799Z,54.40
2018-04-26T23:29:47.296Z,54.30
2018-04-26T23:32:14.759Z,54.10
2018-04-26T23:34:43.199Z,53.70
2018-04-26T23:37:10.671Z,53.70
2018-04-26T23:39:38.927Z,53.20
2018-04-26T23:42:06.383Z,53.10
2018-04-26T23:44:33.866Z,52.90
2018-04-26T23:47:01.374Z,52.80
2018-04-26T23:49:28.848Z,52.90
2018-04-26T23:51:56.466Z,52.80
2018-04-26T23:54:23.947Z,52.80
2018-04-26T23:56:51.420Z,52.80
2018-04-26T23:59:19.017Z,53.10
